Airfield :







YOU CAN JOIN US ON...

 
LOGIN :

Register | Disclaimer

   EN    FR    IT 

 









Legend :    VFR   Marginal VFR   IFR   Intensive IFR   Very Intensive IFR
Visi :
Ceiling :
>= 8 km
>= 3000ft
5 to 8 km
1000 to 3000 ft
1500m to 5 km
500 to 1000 ft
800 to 1500m
200 to 500 ft
< 800m
< 200 ft
Symbols :   Thunderstorms  Fog  Heavy snow  Heavy precipitations  Wind > 20 kt






- Airport Elevation : 40 ft
- IATA code : YRF


CYCA - Cartwright

CURRENT METAR :
  • 271200Z AUTO 10008G18KT 070V150 9SM -RA OVC007 08/07 A2975 RMK SLP077

EXPIRED METARs :
  • 271157Z AUTO 09008G18KT 070V150 9SM -RA OVC007 08/07 A2976 RMK SLP079
  • 271100Z AUTO VRB03G15KT 9SM OVC007 07/07 A2981 RMK SLP096
  • 271009Z AUTO 11006KT 050V130 9SM OVC007 07/07 A2983 RMK SLP103
  • 270925Z AUTO 10005KT 9SM OVC005 07/07 A2985 RMK SLP110

TAF AMD TAF CYCA
Valid from the 27 at 09:00 until the 27 at 20:00 UTC


270940Z 2709/2720 12012G22KT 3SM -RA BR OVC005
TEMPO 2709/2712 P6SM NSW OVC010
FM271200 13010G20KT 3SM -RA BR OVC005
TEMPO 2712/2720 6SM -RA BR OVC010 RMK FCST BASED ON AUTO OBS. NXT FCST BY 271400Z
CZQX FIR / North America



MET'MAP, your aeronautical weather chart ! - Copyright ORBIFLY December 2007 - Disclaimer

ORBIFLY MET'MAP TEAM :

Programming & Development : Alexandra Zaïnal
Concept & original design : Baudouin d'Aumeries
Assistance for programming : Marc-Olivier Méhu
Technical & hardware support : Manuel Goepfert

Contact : metmap@orbifly.com




SOURCES & CREDITS :

   NOAA